Latest Coastal Weather Observations for Hervey Bay

IDQ60701

Issued at 8:35 am EST Thursday 2 October 2014 (issued every 10 minutes, with the page automatically refreshed every 10 minutes)

About coastal observations | Map of coastal stations | Coastal observations for QLD | Marine services | Other Formats
Station Details ID: 040405 Name: HERVEY BAY AIRPORT Lat: -25.32 Lon: 152.88 Height: 12.98 m
Data from the previous 72 hours. | See also: Recent months at Hervey Bay
Date/Time
EST
Temp

°C
Wind Pressure Rain
since 9am
mm
Weather Cloud Vis
km
Sea
Height
m
Swell
Dir
 
Speed
knots
Gust
knots
hPa Trend Height
m
Period
s
Dir
02/08:30am 21.3 SE 11 19 1020.8 - 0.0 - Cloudy 10 - - - -
02/08:00am 21.1 SE 9 19 1020.6 - 0.0 - Cloudy 10 - - - -
02/07:30am 20.9 SE 10 16 1020.3 - 0.0 - Partly cloudy 10 - - - -
02/07:00am 20.9 SE 9 15 1020.0 - 0.0 - Partly cloudy 10 - - - -
02/06:30am 20.7 SSE 12 18 1019.7 - 0.0 - Cloudy 10 - - - -
02/06:00am 20.6 SSE 12 19 1019.1 - 0.0 - Cloudy 10 - - - -
02/05:30am 20.6 SSE 13 21 1018.7 - 0.0 - Partly cloudy 10 - - - -
02/05:00am 20.4 SSE 12 22 1018.2 - 0.0 - Partly cloudy 10 - - - -
02/04:42am 20.5 SSE 15 26 1017.9 - 0.0 - Partly cloudy 10 - - - -
02/04:30am 20.5 SSE 13 25 1017.8 - 0.0 - Partly cloudy 9 - - - -
02/04:00am 21.0 SSE 13 18 1017.3 - 0.0 - Partly cloudy 10 - - - -
02/03:30am 21.1 SSE 12 21 1017.1 - 0.0 - Cloudy 10 - - - -
02/03:00am 21.1 SSE 10 20 1017.1 - 0.0 - Cloudy 10 - - - -
02/02:30am 21.2 SSE 12 19 1016.8 - 0.0 - Partly cloudy 10 - - - -
02/02:00am 20.9 S 10 15 1016.9 - 0.0 - Partly cloudy 10 - - - -
02/01:30am 19.4 S 4 5 1017.1 - 0.0 - Partly cloudy 10 - - - -
02/01:00am 19.6 SSE 4 6 1017.4 - 0.0 - Partly cloudy 10 - - - -
02/12:30am 19.2 S 6 8 1017.5 - 0.0 - Partly cloudy 10 - - - -
02/12:00am 19.1 S 7 10 1017.6 - 0.0 - Mostly clear 10 - - - -
 
Date/Time
EST
Temp

°C
Wind Pressure Rain
since 9am
mm
Weather Cloud Vis
km
Sea
Height
m
Swell
Dir
 
Speed
knots
Gust
knots
hPa Trend Height
m
Period
s
Dir
01/11:30pm 19.0 S 10 14 1017.2 - 0.0 - Partly cloudy 10 - - - -
01/11:00pm 19.3 NNW 4 5 1016.0 - 0.0 - - 10 - - - -
01/10:30pm 20.3 W 5 9 1016.2 - 0.0 - - 10 - - - -
01/10:00pm 20.9 NNW 10 14 1015.6 - 0.0 - - 10 - - - -
01/09:30pm 21.1 N 11 16 1015.4 - 0.0 - - 10 - - - -
01/09:00pm 21.0 NNW 9 16 1015.4 - 0.0 - - 10 - - - -
01/08:30pm 21.0 N 10 16 1015.3 - 0.0 - - 10 - - - -
01/08:00pm 21.1 N 10 14 1015.3 - 0.0 - - 10 - - - -
01/07:30pm 21.1 N 9 15 1015.1 - 0.0 - - 10 - - - -
01/07:00pm 20.9 N 9 13 1014.9 - 0.0 - - 10 - - - -
01/06:30pm 21.3 N 11 17 1014.7 - 0.0 - - 10 - - - -
01/06:00pm 21.2 N 10 16 1014.7 - 0.0 - - 10 - - - -
01/05:30pm 21.4 N 8 15 1014.7 - 0.0 - - 10 - - - -
01/05:00pm 22.0 N 12 17 1014.6 - 0.0 - - 10 - - - -
01/04:30pm 22.2 N 13 18 1014.6 - 0.0 - - 10 - - - -
01/04:00pm 22.7 N 13 20 1014.7 - 0.0 - - 10 - - - -
01/03:30pm 23.3 N 12 18 1014.7 - 0.0 - - 10 - - - -
01/03:00pm 23.4 N 15 21 1014.5 - 0.0 - - 10 - - - -
01/02:30pm 23.3 N 16 20 1015.0 - 0.0 - - 10 - - - -
01/02:00pm 23.6 N 14 19 1015.3 - 0.0 - - 10 - - - -
01/01:30pm 23.7 N 14 19 1015.8 - 0.0 - - 10 - - - -
01/01:00pm 24.6 N 13 18 1016.4 - 0.0 - - 10 - - - -
01/12:30pm 24.4 N 12 17 1016.9 - 0.0 - - 10 - - - -
01/12:00pm 24.5 N 12 17 1017.3 - 0.0 - - 10 - - - -
01/11:30am 24.0 N 13 18 1017.4 - 0.0 - - 10 - - - -
01/11:00am 23.8 NNW 13 19 1017.9 - 0.0 - - 10 - - - -
01/10:30am 23.4 N 12 17 1018.4 - 0.0 - - 10 - - - -
01/10:00am 23.3 NNW 13 19 1018.8 - 0.0 - - 10 - - - -
01/09:30am 23.7 NNW 13 18 1019.2 - 0.0 - Partly cloudy 10 - - - -
01/09:00am 23.1 NNW 12 20 1019.2 - 0.0 - Mostly clear 10 - - - -
01/08:30am 23.2 NNW 11 16 1019.2 - 0.0 - - 10 - - - -
01/08:00am 22.3 NNW 12 19 1019.1 - 0.0 - - 10 - - - -
01/07:30am 21.1 NNW 11 15 1018.9 - 0.0 - Partly cloudy 10 - - - -
01/07:00am 20.9 WNW 6 10 1018.9 - 0.0 - - 10 - - - -
01/06:30am 20.6 NNW 8 13 1018.7 - 0.0 - - 10 - - - -
01/06:00am 20.0 NNW 8 11 1018.5 - 0.0 - - 10 - - - -
01/05:30am 19.8 N 9 13 1018.5 - 0.0 - - 10 - - - -
01/05:00am 19.6 N 7 14 1018.3 - 0.0 - - 10 - - - -
01/04:30am 19.7 N 9 13 1018.3 - 0.0 - - 10 - - - -
01/04:00am 19.7 N 8 13 1018.1 - 0.0 - - 10 - - - -
01/03:30am 19.7 N 8 12 1018.0 - 0.0 - - 10 - - - -
01/03:00am 19.7 N 8 13 1018.2 - 0.0 - - 10 - - - -
01/02:30am 19.5 N 7 9 1018.3 - 0.0 - - 10 - - - -
01/02:00am 20.0 N 8 11 1018.7 - 0.0 - - 10 - - - -
01/01:30am 19.8 N 7 11 1018.9 - 0.0 - - 10 - - - -
01/01:00am 19.8 N 8 13 1019.0 - 0.0 - - 10 - - - -
01/12:30am 19.6 N 7 10 1019.1 - 0.0 - - 10 - - - -
01/12:00am 20.0 N 8 11 1019.3 - 0.0 - - 10 - - - -
 
Date/Time
EST
Temp

°C
Wind Pressure Rain
since 9am
mm
Weather Cloud Vis
km
Sea
Height
m
Swell
Dir
 
Speed
knots
Gust
knots
hPa Trend Height
m
Period
s
Dir
30/11:30pm 20.1 N 7 11 1019.4 - 0.0 - - 10 - - - -
30/11:00pm 20.0 N 7 11 1019.7 - 0.0 - - 10 - - - -
30/10:30pm 20.0 N 7 11 1019.8 - 0.0 - - 10 - - - -
30/10:00pm 20.0 N 7 10 1019.6 - 0.0 - - 10 - - - -
30/09:30pm 20.0 N 7 11 1019.8 - 0.0 - - 10 - - - -
30/09:00pm 20.1 N 7 10 1019.8 - 0.0 - - 10 - - - -
30/08:30pm 20.2 N 6 10 1019.8 - 0.0 - - 10 - - - -
30/08:00pm 20.4 N 8 10 1019.5 - 0.0 - - 10 - - - -
30/07:30pm 20.5 N 8 10 1019.2 - 0.0 - - 10 - - - -
30/07:00pm 20.3 N 6 9 1018.9 - 0.0 - - 10 - - - -
30/06:30pm 20.4 N 6 9 1018.8 - 0.0 - - 10 - - - -
30/06:00pm 20.7 N 7 10 1018.4 - 0.0 - - 10 - - - -
30/05:30pm 21.2 N 7 11 1018.3 - 0.0 - - 10 - - - -
30/05:00pm 21.9 N 9 13 1018.3 - 0.0 - - 10 - - - -
30/04:30pm 22.3 N 9 12 1018.2 - 0.0 - - 10 - - - -
30/04:00pm 23.0 N 9 11 1018.2 - 0.0 - - 10 - - - -
30/03:30pm 23.3 N 8 12 1018.1 - 0.0 - - 10 - - - -
30/03:00pm 23.5 N 10 14 1018.2 - 0.0 - - 10 - - - -
30/02:30pm 24.0 NNW 10 13 1018.6 - 0.0 - - 10 - - - -
30/02:00pm 23.9 N 10 15 1018.7 - 0.0 - - 10 - - - -
30/01:30pm 24.2 NNW 10 13 1019.1 - 0.0 - - 10 - - - -
30/01:00pm 23.7 NNW 10 15 1019.5 - 0.0 - - 10 - - - -
30/12:30pm 24.1 NNW 10 13 1019.8 - 0.0 - - 10 - - - -
30/12:00pm 24.0 N 9 14 1020.2 - 0.0 - - 10 - - - -
30/11:30am 23.6 NNW 10 14 1020.7 - 0.0 - Partly cloudy 10 - - - -
30/11:00am 24.2 NNW 9 14 1021.0 - 0.0 - - 10 - - - -
30/10:30am 24.2 N 8 11 1021.4 - 0.0 - Partly cloudy 10 - - - -
30/10:00am 23.5 NNW 8 13 1021.6 - 0.0 - Partly cloudy 10 - - - -
30/09:30am 22.8 N 6 12 1021.7 - 0.0 - Partly cloudy 10 - - - -
30/09:00am 22.8 N 7 11 1021.7 - 0.0 - Mostly clear 10 - - - -
30/08:30am 22.3 NE 6 9 1021.6 - 0.0 - - 10 - - - -
30/08:00am 21.3 NE 4 6 1021.5 - 0.0 - - 10 - - - -
30/07:30am 19.1 SW 1 3 1021.4 - 0.0 - - 10 - - - -
30/07:00am 16.5 S 1 5 1021.3 - 0.0 - - 10 - - - -
30/06:30am 14.3 CALM 0 3 1021.0 - 0.0 - - 10 - - - -
30/06:00am 11.7 SSW 1 3 1020.7 - 0.0 - - 10 - - - -
30/05:30am 10.9 CALM 0 0 1020.4 - 0.0 - - 10 - - - -
30/05:00am 10.8 CALM 0 0 1020.2 - 0.0 - - 10 - - - -
30/04:30am 10.8 CALM 0 0 1019.7 - 0.0 - - 10 - - - -
30/04:00am 11.1 CALM 0 0 1019.5 - 0.0 - - 10 - - - -
30/03:30am 11.0 CALM 0 0 1019.4 - 0.0 - - 10 - - - -
30/03:00am 11.3 CALM 0 0 1019.4 - 0.0 - - 10 - - - -
30/02:30am 11.6 CALM 0 0 1019.6 - 0.0 - - 10 - - - -
30/02:00am 11.5 CALM 0 0 1019.6 - 0.0 - - 10 - - - -
30/01:30am 11.8 CALM 0 0 1019.8 - 0.0 - - 10 - - - -
30/01:00am 11.9 CALM 0 0 1020.0 - 0.0 - - 10 - - - -
30/12:30am 12.0 CALM 0 0 1020.3 - 0.0 - - 10 - - - -
30/12:00am 12.3 CALM 0 0 1020.4 - 0.0 - - 10 - - - -
 
Date/Time
EST
Temp

°C
Wind Pressure Rain
since 9am
mm
Weather Cloud Vis
km
Sea
Height
m
Swell
Dir
 
Speed
knots
Gust
knots
hPa Trend Height
m
Period
s
Dir
29/11:30pm 12.6 CALM 0 1 1020.4 - 0.0 - - 10 - - - -
29/11:00pm 12.7 CALM 0 0 1020.4 - 0.0 - - 10 - - - -
29/10:30pm 13.2 CALM 0 0 1020.3 - 0.0 - - 10 - - - -
29/10:00pm 13.7 CALM 0 0 1020.5 - 0.0 - - 10 - - - -
29/09:30pm 14.2 CALM 0 0 1020.5 - 0.0 - - 10 - - - -
29/09:00pm 15.6 N 3 5 1020.3 - 0.0 - - 10 - - - -
29/08:30pm 17.4 NNE 5 6 1020.3 - 0.0 - - 10 - - - -
29/08:00pm 17.6 NE 5 6 1020.2 - 0.0 - - 10 - - - -
29/07:30pm 19.5 NE 5 7 1019.9 - 0.0 - - 10 - - - -
29/07:00pm 20.0 ENE 7 10 1019.5 - 0.0 - - 10 - - - -
29/06:30pm 20.4 E 8 11 1019.2 - 0.0 - - 10 - - - -
29/06:00pm 21.0 ENE 5 7 1018.8 - 0.0 - - 10 - - - -
29/05:30pm 21.5 N 6 8 1018.4 - 0.0 - - 10 - - - -
29/05:00pm 22.0 N 8 11 1018.2 - 0.0 - - 10 - - - -
29/04:30pm 22.6 NNE 9 11 1017.9 - 0.0 - - 10 - - - -
29/04:00pm 23.5 ENE 10 12 1017.7 - 0.0 - - 10 - - - -
29/03:30pm 24.3 E 10 13 1017.8 - 0.0 - - 10 - - - -
29/03:00pm 24.2 ESE 9 13 1017.9 - 0.0 - - 10 - - - -
29/02:30pm 24.5 ESE 7 11 1018.1 - 0.0 - - 10 - - - -
29/02:00pm 24.3 E 7 11 1018.3 - 0.0 - - 10 - - - -
29/01:30pm 24.5 E 8 11 1018.4 - 0.0 - - 10 - - - -
29/01:00pm 24.3 E 8 12 1018.8 - 0.0 - - 10 - - - -
29/12:30pm 24.2 E 8 11 1019.2 - 0.0 - - 10 - - - -
29/12:00pm 23.9 ESE 7 11 1019.6 - 0.0 - - 10 - - - -
29/11:30am 23.8 E 7 12 1019.9 - 0.0 - - 10 - - - -
29/11:00am 23.4 E 7 12 1020.2 - 0.0 - - 10 - - - -
29/10:30am 23.3 SE 8 12 1020.7 - 0.0 - - 10 - - - -
29/10:00am 23.7 E 7 14 1021.1 - 0.0 - Partly cloudy 10 - - - -
29/09:30am 22.9 ESE 7 10 1021.4 - 0.0 - Partly cloudy 10 - - - -
29/09:00am 23.0 SE 6 10 1021.6 - 0.0 - Cloudy 10 - - - -

Other Formats:

Comma delimited format used in spreadsheet applications
http://www.bom.gov.au/fwo/IDQ60701/IDQ60701.95565.axf

JavaScript Object Notation format (JSON) in row-major order
http://www.bom.gov.au/fwo/IDQ60701/IDQ60701.95565.json